Time;durP1;ratioP1;P1;durP2;ratioP2;P2;SDS_P1;SDS_P2;PMS_P1;PMS_P2;Temp;Humidity;BMP_temperature;BMP_pressure;BME280_temperature;BME280_humidity;BME280_pressure;Samples;Min_cycle;Max_cycle;Signal;HPM_P1;HPM_P2
2021/12/01 00:00:38;;;;;;;18.50;8.52;;;8.10;99.90;;;;;;6150890;23;20016;-82
2021/12/01 00:03:04;;;;;;;18.92;8.25;;;8.10;99.90;;;;;;6174832;23;20347;-82
2021/12/01 00:05:33;;;;;;;21.33;8.50;;;8.10;99.90;;;;;;6179682;23;20040;-82
2021/12/01 00:08:00;;;;;;;22.35;8.88;;;8.20;99.90;;;;;;6182458;23;20017;-83
2021/12/01 00:10:28;;;;;;;19.88;9.25;;;8.30;99.90;;;;;;6130703;23;20024;-82
2021/12/01 00:12:55;;;;;;;21.13;9.02;;;8.20;99.90;;;;;;6156230;23;20016;-82
2021/12/01 00:15:21;;;;;;;23.63;9.70;;;8.30;99.90;;;;;;6155242;23;20017;-82
2021/12/01 00:17:47;;;;;;;18.73;8.60;;;8.30;99.90;;;;;;6180728;23;20052;-82
2021/12/01 00:20:16;;;;;;;19.33;8.73;;;8.30;99.90;;;;;;6156215;23;20423;-82
2021/12/01 00:22:43;;;;;;;17.63;8.13;;;8.30;99.90;;;;;;6131341;23;20063;-81
2021/12/01 00:25:13;;;;;;;20.73;9.25;;;8.50;99.90;;;;;;6182213;23;20459;-81
2021/12/01 00:27:46;;;;;;;20.63;9.00;;;8.50;99.90;;;;;;6180209;23;20017;-81
2021/12/01 00:30:12;;;;;;;19.70;10.05;;;8.50;99.90;;;;;;6127934;23;20460;-82
2021/12/01 00:32:38;;;;;;;22.17;9.95;;;8.60;99.90;;;;;;6131242;23;20340;-81
2021/12/01 00:35:06;;;;;;;20.00;10.43;;;8.70;99.90;;;;;;6155366;23;20084;-81
2021/12/01 00:37:32;;;;;;;21.75;11.05;;;8.60;99.90;;;;;;6131214;23;20083;-82
2021/12/01 00:39:58;;;;;;;24.75;11.93;;;;;;;;;;6155269;23;20051;-82
2021/12/01 00:42:25;;;;;;;24.83;12.60;;;8.80;99.90;;;;;;6155914;23;20017;-82
2021/12/01 00:44:56;;;;;;;24.80;13.45;;;8.90;99.90;;;;;;6131295;23;20096;-81
2021/12/01 00:47:30;;;;;;;22.60;12.90;;;8.90;99.90;;;;;;6131251;23;20024;-81
2021/12/01 00:49:58;;;;;;;22.63;13.38;;;8.90;99.90;;;;;;6130742;23;20479;-81
2021/12/01 00:52:24;;;;;;;25.52;14.50;;;9.00;99.90;;;;;;6131009;23;20459;-81
2021/12/01 00:54:50;;;;;;;28.80;14.88;;;9.00;99.90;;;;;;6131233;23;20092;-81
2021/12/01 00:57:16;;;;;;;31.02;16.45;;;9.00;99.90;;;;;;6155625;23;20055;-81
2021/12/01 00:59:42;;;;;;;29.20;16.10;;;9.10;99.90;;;;;;6106189;23;20020;-81
2021/12/01 01:02:07;;;;;;;29.13;16.00;;;9.10;99.90;;;;;;6155331;23;20009;-80
2021/12/01 01:04:33;;;;;;;34.90;16.65;;;9.10;99.90;;;;;;6130495;23;20467;-81
2021/12/01 01:06:59;;;;;;;33.22;17.70;;;9.10;99.90;;;;;;6130492;23;20017;-81
2021/12/01 01:09:31;;;;;;;32.28;17.45;;;;;;;;;;6082296;23;20005;-81
2021/12/01 01:17:38;;;;;;;30.60;16.40;;;9.10;99.90;;;;;;6180036;23;20322;-81
2021/12/01 01:20:10;;;;;;;29.33;16.45;;;9.10;99.90;;;;;;6155354;23;20017;-81
2021/12/01 01:22:38;;;;;;;28.15;16.40;;;9.20;99.90;;;;;;6131387;23;20433;-81
2021/12/01 01:25:05;;;;;;;27.52;14.73;;;9.00;99.90;;;;;;6130441;23;20031;-81
2021/12/01 01:27:31;;;;;;;25.42;15.50;;;9.20;99.90;;;;;;6130175;23;20032;-81
2021/12/01 01:29:57;;;;;;;23.85;14.65;;;9.20;99.90;;;;;;6155387;23;20017;-80
2021/12/01 01:32:23;;;;;;;25.52;16.10;;;;;;;;;;6106085;23;20099;-82
2021/12/01 01:34:49;;;;;;;26.20;15.05;;;9.20;99.90;;;;;;6154893;23;20017;-80
2021/12/01 01:37:15;;;;;;;22.70;12.73;;;9.20;99.90;;;;;;6105958;23;20021;-81
2021/12/01 01:39:41;;;;;;;31.75;14.93;;;9.30;99.90;;;;;;6154975;23;20009;-80
2021/12/01 01:42:07;;;;;;;30.75;13.63;;;9.30;99.90;;;;;;6130901;23;20804;-81
2021/12/01 01:44:33;;;;;;;22.55;13.73;;;9.00;99.90;;;;;;6129704;23;20032;-81
2021/12/01 01:46:59;;;;;;;21.48;13.00;;;9.30;99.90;;;;;;6106209;23;20099;-81
2021/12/01 01:52:09;;;;;;;21.95;11.75;;;9.30;99.90;;;;;;6181709;23;20079;-81
2021/12/01 01:54:36;;;;;;;22.27;10.73;;;9.30;99.90;;;;;;6155041;23;20461;-81
2021/12/01 01:57:02;;;;;;;20.60;10.70;;;9.30;99.90;;;;;;6180187;23;20077;-81
2021/12/01 01:59:27;;;;;;;20.20;10.13;;;9.30;99.90;;;;;;6154326;23;20013;-80
2021/12/01 02:01:56;;;;;;;21.73;10.15;;;9.30;99.90;;;;;;6155603;23;20380;-80
2021/12/01 02:04:23;;;;;;;18.40;8.57;;;9.30;99.90;;;;;;6154486;23;20012;-80
2021/12/01 02:06:50;;;;;;;17.30;8.20;;;9.60;99.90;;;;;;6154821;23;20039;-80
2021/12/01 02:09:20;;;;;;;16.05;7.78;;;9.40;99.90;;;;;;6130338;23;20143;-81
2021/12/01 02:11:47;;;;;;;14.23;6.78;;;9.40;99.90;;;;;;6154827;23;20071;-81
2021/12/01 02:14:16;;;;;;;15.77;7.30;;;9.40;99.90;;;;;;6181629;23;20020;-80
2021/12/01 02:16:43;;;;;;;16.70;6.20;;;9.40;99.90;;;;;;6130361;23;20104;-81
2021/12/01 02:19:09;;;;;;;13.40;5.75;;;9.40;99.90;;;;;;6154582;23;21293;-81
2021/12/01 02:21:35;;;;;;;14.40;5.65;;;9.40;99.90;;;;;;6154572;23;20097;-81
2021/12/01 02:24:08;;;;;;;14.70;4.78;;;9.40;99.90;;;;;;6130054;23;20021;-80
2021/12/01 02:26:38;;;;;;;12.75;4.30;;;9.30;99.90;;;;;;6130125;23;20021;-81
2021/12/01 02:29:12;;;;;;;11.85;3.72;;;9.40;99.90;;;;;;6154525;23;20444;-81
2021/12/01 02:31:39;;;;;;;11.00;3.10;;;9.30;99.90;;;;;;6105940;23;20392;-83
2021/12/01 02:34:11;;;;;;;9.50;2.80;;;9.50;99.90;;;;;;6105968;23;20047;-81
2021/12/01 02:36:38;;;;;;;9.50;2.63;;;9.50;99.90;;;;;;6154896;23;20017;-81
2021/12/01 02:39:08;;;;;;;7.72;2.33;;;9.50;99.90;;;;;;6181148;23;20016;-82
2021/12/01 02:41:36;;;;;;;9.20;2.33;;;9.50;99.90;;;;;;6181385;23;20444;-82
2021/12/01 02:44:04;;;;;;;8.07;2.17;;;9.50;99.90;;;;;;6130390;23;20036;-82
2021/12/01 02:46:30;;;;;;;7.07;1.90;;;9.50;99.90;;;;;;6154963;23;20048;-82
2021/12/01 02:48:59;;;;;;;6.82;1.88;;;9.40;99.90;;;;;;6130304;23;20449;-82
2021/12/01 02:51:30;;;;;;;5.53;1.70;;;9.50;99.90;;;;;;6130100;23;20009;-81
2021/12/01 02:53:56;;;;;;;4.90;1.77;;;9.50;99.90;;;;;;6154524;23;20092;-82
2021/12/01 02:56:23;;;;;;;4.97;1.70;;;9.30;99.90;;;;;;6129862;23;20115;-80
2021/12/01 02:58:51;;;;;;;6.45;1.88;;;9.50;99.90;;;;;;6130074;23;20017;-81
2021/12/01 03:01:19;;;;;;;5.90;1.60;;;9.50;99.90;;;;;;6129779;23;20112;-81
2021/12/01 03:03:46;;;;;;;6.32;1.80;;;9.40;99.90;;;;;;6153785;23;20009;-81
2021/12/01 03:06:16;;;;;;;6.00;1.63;;;9.50;99.90;;;;;;6129726;23;20096;-81
2021/12/01 03:08:42;;;;;;;5.05;1.80;;;9.50;99.90;;;;;;6181931;23;20322;-80
2021/12/01 03:11:09;;;;;;;6.35;1.70;;;9.40;99.90;;;;;;6130278;23;20071;-81
2021/12/01 03:13:35;;;;;;;5.22;1.80;;;9.50;99.90;;;;;;6130050;23;20009;-81
2021/12/01 03:16:07;;;;;;;5.43;1.65;;;9.50;99.90;;;;;;6154349;23;20070;-81
2021/12/01 03:18:33;;;;;;;5.10;1.50;;;9.50;99.90;;;;;;6132124;23;20020;-82
2021/12/01 03:20:59;;;;;;;5.38;1.65;;;10.80;99.90;;;;;;6131100;23;20460;-81
2021/12/01 03:23:26;;;;;;;4.47;1.50;;;9.60;99.90;;;;;;6182785;23;20009;-82
2021/12/01 03:25:52;;;;;;;4.80;1.40;;;9.50;99.90;;;;;;6131311;23;20392;-82
2021/12/01 03:28:18;;;;;;;4.80;1.50;;;9.60;99.90;;;;;;6131426;23;20079;-81
2021/12/01 03:30:46;;;;;;;4.00;1.33;;;11.30;99.90;;;;;;6131535;23;20408;-82
2021/12/01 03:33:16;;;;;;;4.55;1.35;;;9.60;99.90;;;;;;6182531;23;20786;-82
2021/12/01 03:35:44;;;;;;;6.45;1.60;;;9.60;99.90;;;;;;6155589;23;20078;-81
2021/12/01 03:38:11;;;;;;;8.55;1.60;;;9.60;99.90;;;;;;6131246;23;20024;-83
2021/12/01 03:40:38;;;;;;;6.38;1.50;;;9.60;99.90;;;;;;6155555;23;20092;-82
2021/12/01 03:43:05;;;;;;;8.20;1.63;;;9.60;99.90;;;;;;6156277;23;20009;-82
2021/12/01 03:45:36;;;;;;;10.50;1.98;;;9.60;99.90;;;;;;6155683;23;20452;-82
2021/12/01 03:48:02;;;;;;;9.50;1.83;;;9.60;99.90;;;;;;6156634;23;20376;-82
2021/12/01 03:50:28;;;;;;;9.38;1.88;;;9.70;99.90;;;;;;6131582;23;20096;-81
2021/12/01 03:52:54;;;;;;;9.77;2.05;;;9.60;99.90;;;;;;6180872;23;20048;-83
2021/12/01 03:55:21;;;;;;;7.00;1.63;;;;;;;;;;6131060;23;20013;-81
2021/12/01 03:57:50;;;;;;;7.30;1.80;;;9.70;99.90;;;;;;6156371;23;20016;-82
2021/12/01 04:00:18;;;;;;;9.90;1.88;;;10.90;99.90;;;;;;6180313;23;20009;-81
2021/12/01 04:02:44;;;;;;;13.23;2.28;;;9.70;99.90;;;;;;6182581;23;20009;-82
2021/12/01 04:05:11;;;;;;;13.65;2.75;;;9.70;99.90;;;;;;6155561;23;20028;-82
2021/12/01 04:07:37;;;;;;;12.45;2.65;;;9.70;99.90;;;;;;6155909;23;20017;-81
2021/12/01 04:10:08;;;;;;;12.57;2.58;;;9.70;99.90;;;;;;6131440;23;20456;-81
2021/12/01 04:12:35;;;;;;;14.93;2.95;;;9.70;99.90;;;;;;6155739;23;20100;-81
2021/12/01 04:15:02;;;;;;;16.42;2.70;;;9.70;99.90;;;;;;6106847;23;20013;-82
2021/12/01 04:17:28;;;;;;;14.65;2.40;;;9.70;99.90;;;;;;6182621;23;20009;-81
2021/12/01 04:19:54;;;;;;;13.20;2.35;;;9.70;99.90;;;;;;6106555;23;20349;-81
2021/12/01 04:22:20;;;;;;;15.02;2.63;;;9.60;99.90;;;;;;6083334;23;20013;-82
2021/12/01 04:24:46;;;;;;;12.40;2.30;;;9.60;99.90;;;;;;6156241;23;20441;-81
2021/12/01 04:27:12;;;;;;;11.30;2.30;;;9.60;99.90;;;;;;6130956;23;20032;-82
2021/12/01 04:29:40;;;;;;;14.13;2.60;;;9.60;99.90;;;;;;6155290;23;20067;-82
2021/12/01 04:32:08;;;;;;;10.73;2.17;;;9.60;99.90;;;;;;6155597;23;20020;-83
2021/12/01 04:34:37;;;;;;;11.25;2.40;;;8.70;99.90;;;;;;6106714;23;20016;-83
2021/12/01 04:37:04;;;;;;;8.48;1.98;;;9.60;99.90;;;;;;6130456;23;20021;-84
2021/12/01 04:39:33;;;;;;;11.57;2.17;;;9.60;99.90;;;;;;6180367;23;20021;-83
2021/12/01 04:42:05;;;;;;;9.77;2.28;;;9.60;99.90;;;;;;6131349;23;20471;-84
2021/12/01 04:44:36;;;;;;;5.55;1.83;;;12.30;99.90;;;;;;6130364;23;20090;-83
2021/12/01 04:47:08;;;;;;;6.95;1.83;;;9.50;99.90;;;;;;6131286;23;20017;-81
2021/12/01 04:49:40;;;;;;;7.40;2.08;;;9.50;99.90;;;;;;6132077;23;20009;-81
2021/12/01 04:52:08;;;;;;;8.07;1.75;;;9.50;99.90;;;;;;6182445;23;20013;-81
2021/12/01 04:54:34;;;;;;;5.43;1.73;;;9.50;99.90;;;;;;6181781;23;20048;-82
2021/12/01 04:57:04;;;;;;;5.75;1.75;;;9.50;99.90;;;;;;6155884;23;20009;-84
2021/12/01 04:59:31;;;;;;;6.43;1.83;;;9.50;99.90;;;;;;6130451;23;20349;-80
2021/12/01 05:01:57;;;;;;;5.30;1.80;;;9.50;99.90;;;;;;6155372;23;20062;-83
2021/12/01 05:04:26;;;;;;;5.03;1.95;;;10.00;99.90;;;;;;6130404;23;20024;-82
2021/12/01 05:06:52;;;;;;;7.07;2.10;;;9.50;99.90;;;;;;6155058;23;20035;-82
2021/12/01 05:09:18;;;;;;;7.35;2.40;;;9.50;99.90;;;;;;6130788;23;20013;-81
2021/12/01 05:11:44;;;;;;;6.70;2.30;;;9.50;99.90;;;;;;6155556;23;20013;-82
2021/12/01 05:14:12;;;;;;;6.88;2.35;;;9.50;99.90;;;;;;6130521;23;20749;-82
2021/12/01 05:16:39;;;;;;;6.55;2.45;;;9.50;99.90;;;;;;6155331;23;20021;-83
2021/12/01 05:19:05;;;;;;;6.30;2.05;;;9.50;99.90;;;;;;6154981;23;20016;-83
2021/12/01 05:21:32;;;;;;;6.80;2.05;;;9.50;99.90;;;;;;6130560;23;20017;-83
2021/12/01 05:23:58;;;;;;;4.72;1.90;;;9.50;99.90;;;;;;6130804;23;20009;-84
2021/12/01 05:26:28;;;;;;;5.13;1.70;;;9.50;99.90;;;;;;6107075;23;20500;-81
2021/12/01 05:28:54;;;;;;;5.57;1.80;;;9.40;99.90;;;;;;6181465;23;20052;-83
2021/12/01 05:31:20;;;;;;;4.20;1.50;;;9.90;99.90;;;;;;6130214;23;20013;-83
2021/12/01 05:33:45;;;;;;;4.40;1.90;;;9.40;99.90;;;;;;6106291;23;20017;-82
2021/12/01 05:36:15;;;;;;;4.15;1.52;;;9.90;99.90;;;;;;6154731;23;20019;-82
2021/12/01 05:38:42;;;;;;;4.25;1.63;;;9.40;99.90;;;;;;6155837;23;20334;-81
2021/12/01 05:41:09;;;;;;;3.13;1.40;;;9.40;99.90;;;;;;6154634;23;20009;-82
2021/12/01 05:43:35;;;;;;;2.78;1.40;;;9.40;99.90;;;;;;6155445;23;20009;-82
2021/12/01 05:46:01;;;;;;;4.97;1.63;;;9.40;99.90;;;;;;6154489;23;20462;-82
2021/12/01 05:48:26;;;;;;;3.60;1.50;;;9.40;99.90;;;;;;6130769;23;20017;-81
2021/12/01 05:50:55;;;;;;;4.78;1.70;;;9.40;99.90;;;;;;6130753;23;20067;-81
2021/12/01 05:53:20;;;;;;;3.95;1.60;;;9.30;99.90;;;;;;6105752;23;20021;-81
2021/12/01 05:55:49;;;;;;;4.43;1.73;;;9.30;99.90;;;;;;6130567;23;20487;-81
2021/12/01 05:58:15;;;;;;;3.95;1.75;;;9.30;99.90;;;;;;6155135;23;20511;-84
2021/12/01 06:00:41;;;;;;;4.38;1.73;;;;;;;;;;6179196;23;20017;-82
2021/12/01 06:03:07;;;;;;;4.18;1.70;;;;;;;;;;6155199;23;20088;-80
2021/12/01 06:05:33;;;;;;;4.35;1.85;;;9.30;99.90;;;;;;6153753;23;20507;-81
2021/12/01 06:07:59;;;;;;;4.72;1.80;;;9.30;99.90;;;;;;6154983;23;20020;-82
2021/12/01 06:10:25;;;;;;;6.05;2.05;;;9.30;99.90;;;;;;6129107;23;20476;-82
2021/12/01 06:12:52;;;;;;;5.25;2.08;;;9.30;99.90;;;;;;6154988;23;20071;-81
2021/12/01 06:15:18;;;;;;;4.60;1.77;;;9.30;99.90;;;;;;6155058;23;20017;-82
2021/12/01 06:17:44;;;;;;;4.68;1.70;;;9.20;99.90;;;;;;6154692;23;20055;-83
2021/12/01 06:20:11;;;;;;;4.45;1.80;;;9.20;99.90;;;;;;6129852;23;20518;-82
2021/12/01 06:22:38;;;;;;;5.70;2.00;;;9.20;99.90;;;;;;6154592;23;20322;-83
2021/12/01 06:25:04;;;;;;;4.70;1.80;;;9.20;99.90;;;;;;6129732;23;20021;-83
2021/12/01 06:27:30;;;;;;;5.55;1.98;;;9.10;99.90;;;;;;6130098;23;20040;-81
2021/12/01 06:29:56;;;;;;;5.43;2.00;;;9.10;99.90;;;;;;6180621;23;20449;-81
2021/12/01 06:32:24;;;;;;;5.90;2.00;;;9.10;99.90;;;;;;6105935;23;20075;-83
2021/12/01 06:34:50;;;;;;;6.55;2.30;;;9.10;99.90;;;;;;6154540;23;20013;-81
2021/12/01 06:37:18;;;;;;;5.93;1.90;;;9.20;99.90;;;;;;6129051;23;20024;-82
2021/12/01 06:39:45;;;;;;;4.68;1.85;;;9.30;99.90;;;;;;6129790;23;20084;-81
2021/12/01 06:42:12;;;;;;;5.00;1.98;;;9.40;99.90;;;;;;6179902;23;20361;-82
2021/12/01 06:44:38;;;;;;;5.30;1.90;;;9.10;99.90;;;;;;6154788;23;20120;-83
2021/12/01 06:47:04;;;;;;;4.95;1.80;;;9.10;99.90;;;;;;6155023;23;20402;-82
2021/12/01 06:49:30;;;;;;;4.43;1.88;;;9.10;99.90;;;;;;6130086;23;20084;-82
2021/12/01 06:51:56;;;;;;;5.07;2.00;;;9.00;99.90;;;;;;6183092;23;20111;-82
2021/12/01 06:54:22;;;;;;;6.40;2.00;;;9.00;99.90;;;;;;6156598;23;20009;-81
2021/12/01 06:56:48;;;;;;;4.78;1.92;;;9.10;99.90;;;;;;6183925;23;20017;-83
2021/12/01 06:59:14;;;;;;;5.18;2.00;;;9.00;99.90;;;;;;6131912;23;20013;-82
2021/12/01 07:01:43;;;;;;;4.95;1.90;;;9.00;99.90;;;;;;6107402;23;20017;-83
2021/12/01 07:04:09;;;;;;;5.00;1.90;;;9.00;99.90;;;;;;6105122;23;20017;-83
2021/12/01 07:06:34;;;;;;;3.60;1.73;;;9.00;99.90;;;;;;6125948;23;20095;-82
2021/12/01 07:09:01;;;;;;;4.68;1.73;;;8.90;99.90;;;;;;6126698;23;20022;-83
2021/12/01 07:11:27;;;;;;;5.35;1.90;;;8.90;99.90;;;;;;6126635;23;20021;-82
2021/12/01 07:13:54;;;;;;;4.05;1.60;;;8.90;99.90;;;;;;6152073;23;20021;-82
2021/12/01 07:16:20;;;;;;;4.05;1.60;;;8.90;99.90;;;;;;6127467;23;20037;-81
2021/12/01 07:18:46;;;;;;;2.95;1.58;;;8.90;99.90;;;;;;6153551;23;20060;-82
2021/12/01 07:21:12;;;;;;;2.80;1.40;;;8.90;99.90;;;;;;6153734;23;20045;-81
2021/12/01 07:23:38;;;;;;;3.42;1.60;;;8.90;99.90;;;;;;6153166;23;20349;-81
2021/12/01 07:26:05;;;;;;;4.15;1.70;;;8.90;99.90;;;;;;6151110;23;20025;-81
2021/12/01 07:28:31;;;;;;;4.45;1.70;;;8.90;99.90;;;;;;6151406;23;20064;-81
2021/12/01 07:30:58;;;;;;;5.65;1.80;;;8.90;99.90;;;;;;6126761;23;20017;-83
2021/12/01 07:33:24;;;;;;;4.20;1.90;;;8.90;99.90;;;;;;6126193;23;20017;-82
2021/12/01 07:35:50;;;;;;;5.03;1.80;;;8.90;99.90;;;;;;6151331;23;20017;-83
2021/12/01 07:38:16;;;;;;;5.25;1.90;;;8.90;99.90;;;;;;6126512;23;20381;-82
2021/12/01 07:40:42;;;;;;;6.07;1.90;;;8.90;99.90;;;;;;6102603;23;20041;-83
2021/12/01 07:43:08;;;;;;;4.68;1.90;;;8.90;99.90;;;;;;6151424;23;20369;-82
2021/12/01 07:45:35;;;;;;;4.35;1.80;;;8.90;99.90;;;;;;6126206;23;20021;-82
2021/12/01 07:48:00;;;;;;;4.32;1.70;;;8.90;99.90;;;;;;6151353;23;20457;-83
2021/12/01 07:50:26;;;;;;;6.43;1.83;;;8.90;99.90;;;;;;6151478;23;20018;-82
2021/12/01 07:52:52;;;;;;;4.50;1.80;;;8.90;99.90;;;;;;6150880;23;20017;-82
2021/12/01 07:55:18;;;;;;;5.82;2.00;;;8.90;99.90;;;;;;6150660;23;20072;-81
2021/12/01 07:57:46;;;;;;;5.88;2.05;;;8.00;99.90;;;;;;6150431;23;20088;-82
2021/12/01 08:00:13;;;;;;;7.28;2.55;;;8.90;99.90;;;;;;6125553;23;20056;-81
2021/12/01 08:02:39;;;;;;;7.53;2.58;;;9.00;99.90;;;;;;6125716;23;20017;-81
2021/12/01 08:05:06;;;;;;;7.25;2.60;;;9.00;99.90;;;;;;6175128;23;20017;-81
2021/12/01 08:07:35;;;;;;;7.05;2.55;;;9.00;99.90;;;;;;6149413;23;20540;-82
2021/12/01 08:10:02;;;;;;;9.73;2.58;;;9.00;99.90;;;;;;6149655;23;20033;-82
2021/12/01 08:12:28;;;;;;;6.45;2.42;;;9.00;99.90;;;;;;6150204;23;20028;-82
2021/12/01 08:14:54;;;;;;;8.85;2.80;;;9.00;99.90;;;;;;6151475;23;20037;-83
2021/12/01 08:17:20;;;;;;;7.43;2.60;;;9.00;99.90;;;;;;6175454;23;20020;-81
2021/12/01 08:19:46;;;;;;;5.95;2.33;;;9.00;99.90;;;;;;6124929;23;20041;-81
2021/12/01 08:22:12;;;;;;;7.20;2.60;;;9.10;99.90;;;;;;6125216;23;20607;-83
2021/12/01 08:24:37;;;;;;;7.20;2.72;;;9.10;99.90;;;;;;6149248;23;20353;-81
2021/12/01 08:27:04;;;;;;;7.25;2.90;;;9.00;99.90;;;;;;6101145;23;20096;-82
2021/12/01 08:29:30;;;;;;;6.72;2.75;;;9.00;99.90;;;;;;6174026;23;20020;-81
2021/12/01 08:31:55;;;;;;;7.68;3.03;;;9.10;99.90;;;;;;6150060;23;20045;-82
2021/12/01 08:34:21;;;;;;;8.45;2.80;;;9.10;99.90;;;;;;6151711;23;20085;-81
2021/12/01 08:36:47;;;;;;;10.32;2.88;;;9.10;99.90;;;;;;6125529;23;20079;-82
2021/12/01 08:39:13;;;;;;;6.88;2.60;;;10.10;99.90;;;;;;6125086;23;20355;-82
2021/12/01 08:41:39;;;;;;;7.57;2.80;;;9.10;99.90;;;;;;6150353;23;20032;-83
2021/12/01 08:44:05;;;;;;;7.90;2.75;;;9.10;99.90;;;;;;6124954;23;20344;-83
2021/12/01 08:46:31;;;;;;;7.55;2.67;;;9.10;99.90;;;;;;6125379;23;20017;-83
2021/12/01 08:48:58;;;;;;;8.02;2.58;;;9.10;99.90;;;;;;6124567;23;20013;-83
2021/12/01 08:51:25;;;;;;;7.45;2.10;;;9.10;99.90;;;;;;6150476;23;20032;-82
2021/12/01 08:53:51;;;;;;;7.85;2.20;;;9.10;99.90;;;;;;6149728;23;20020;-83
2021/12/01 08:56:17;;;;;;;9.02;2.30;;;9.50;99.90;;;;;;6149397;23;20025;-82
2021/12/01 08:58:43;;;;;;;7.63;2.00;;;9.10;99.90;;;;;;6100812;23;20021;-82
2021/12/01 09:01:09;;;;;;;8.52;2.60;;;9.10;99.90;;;;;;6123699;23;20009;-82
2021/12/01 09:03:36;;;;;;;11.35;2.30;;;9.20;99.90;;;;;;6124004;23;20010;-81
2021/12/01 09:06:03;;;;;;;11.32;2.42;;;9.10;99.90;;;;;;6129166;23;20036;-81
2021/12/01 09:08:29;;;;;;;10.35;2.05;;;9.10;99.90;;;;;;6130076;23;20017;-80
2021/12/01 09:11:02;;;;;;;14.82;2.30;;;9.10;99.90;;;;;;6153780;23;20520;-81
2021/12/01 09:13:30;;;;;;;15.15;2.50;;;9.10;99.90;;;;;;6105747;23;20445;-80
2021/12/01 09:15:56;;;;;;;10.13;2.33;;;9.10;99.90;;;;;;6129449;23;20040;-81
2021/12/01 09:18:25;;;;;;;9.73;2.30;;;9.10;99.90;;;;;;6129771;23;20013;-81
2021/12/01 09:20:51;;;;;;;10.40;2.35;;;9.10;99.90;;;;;;6129707;23;20418;-81
2021/12/01 09:23:18;;;;;;;12.45;2.22;;;9.10;99.90;;;;;;6105512;23;20009;-80
2021/12/01 09:25:45;;;;;;;10.07;1.90;;;9.10;99.90;;;;;;6105658;23;20021;-81
2021/12/01 09:28:13;;;;;;;9.73;2.08;;;9.10;99.90;;;;;;6105096;23;20111;-83
2021/12/01 09:30:38;;;;;;;11.85;1.88;;;9.10;99.90;;;;;;6178407;23;20409;-81
2021/12/01 09:33:04;;;;;;;11.90;2.17;;;9.10;99.90;;;;;;6129341;23;20024;-81
2021/12/01 09:35:30;;;;;;;10.80;1.85;;;9.10;99.90;;;;;;6153421;23;20017;-81
2021/12/01 09:37:56;;;;;;;9.60;1.98;;;9.10;99.90;;;;;;6178893;23;20045;-81
2021/12/01 09:40:22;;;;;;;8.07;1.70;;;9.10;99.90;;;;;;6154045;23;20341;-80
2021/12/01 09:42:51;;;;;;;9.60;1.90;;;9.00;99.90;;;;;;6154652;23;20340;-82
2021/12/01 09:45:20;;;;;;;7.10;2.00;;;12.00;99.90;;;;;;6179713;23;20017;-82
2021/12/01 09:47:46;;;;;;;9.80;1.90;;;9.00;99.90;;;;;;6153903;23;20016;-83
2021/12/01 09:50:14;;;;;;;8.95;1.77;;;9.00;99.90;;;;;;6104571;23;20322;-81
2021/12/01 09:52:39;;;;;;;9.07;1.83;;;9.30;99.90;;;;;;6180614;23;20340;-82
2021/12/01 09:55:06;;;;;;;9.18;1.85;;;9.00;99.90;;;;;;6104132;23;20013;-82
2021/12/01 09:57:33;;;;;;;7.88;2.03;;;9.00;99.90;;;;;;6154295;23;20013;-81
2021/12/01 09:59:59;;;;;;;10.48;1.80;;;9.00;99.90;;;;;;6153615;23;20095;-82
2021/12/01 10:02:25;;;;;;;8.57;1.80;;;9.00;99.90;;;;;;6105118;23;20336;-83
2021/12/01 10:04:53;;;;;;;8.23;1.70;;;9.00;99.90;;;;;;6153847;23;20519;-83
2021/12/01 10:07:22;;;;;;;7.18;1.60;;;9.00;99.90;;;;;;6153065;23;20021;-83
2021/12/01 10:09:53;;;;;;;13.07;1.92;;;9.00;99.90;;;;;;6128678;23;20008;-81
2021/12/01 10:12:19;;;;;;;10.82;2.50;;;9.10;99.90;;;;;;6154171;23;20009;-82
2021/12/01 10:14:47;;;;;;;10.32;2.33;;;9.00;99.90;;;;;;6129963;23;20444;-81
2021/12/01 10:17:14;;;;;;;11.45;1.92;;;9.00;99.90;;;;;;6154136;23;20444;-82
2021/12/01 10:19:39;;;;;;;12.07;2.20;;;9.40;99.90;;;;;;6154957;23;20071;-83
2021/12/01 10:22:10;;;;;;;14.05;2.10;;;9.10;99.90;;;;;;6154599;23;20013;-82
2021/12/01 10:24:39;;;;;;;14.68;3.20;;;9.10;99.90;;;;;;6129209;23;20013;-82
2021/12/01 10:27:11;;;;;;;12.77;2.63;;;9.20;99.90;;;;;;6178300;23;20453;-83
2021/12/01 10:29:48;;;;;;;12.15;2.38;;;9.20;99.90;;;;;;6153992;23;20092;-81
2021/12/01 10:32:18;;;;;;;15.93;3.13;;;9.20;99.90;;;;;;6129288;23;20016;-83
2021/12/01 10:34:47;;;;;;;15.50;2.28;;;9.10;99.90;;;;;;6129292;23;20020;-82
2021/12/01 10:37:26;;;;;;;12.68;2.65;;;9.10;99.90;;;;;;6178459;23;20452;-82
2021/12/01 10:40:21;;;;;;;13.05;2.55;;;9.10;99.90;;;;;;6128727;23;20499;-83
2021/12/01 10:43:07;;;;;;;12.00;2.85;;;9.10;99.90;;;;;;6130135;23;20057;-82
2021/12/01 10:45:42;;;;;;;13.38;2.30;;;9.00;99.90;;;;;;6153656;23;20064;-83
2021/12/01 10:48:18;;;;;;;12.63;2.33;;;9.00;99.90;;;;;;6154188;23;20172;-81
2021/12/01 10:50:44;;;;;;;13.43;2.40;;;8.90;99.90;;;;;;6128753;23;20027;-81
2021/12/01 10:53:17;;;;;;;12.30;2.85;;;9.00;99.90;;;;;;6104683;23;20043;-82
2021/12/01 10:55:48;;;;;;;12.38;2.70;;;9.00;99.90;;;;;;6154304;23;20461;-82
2021/12/01 10:58:15;;;;;;;13.98;2.38;;;9.00;99.90;;;;;;6178317;23;20017;-83
2021/12/01 11:00:44;;;;;;;12.60;2.35;;;9.00;99.90;;;;;;6152218;23;20576;-82
2021/12/01 11:03:12;;;;;;;12.20;2.40;;;9.00;99.90;;;;;;6130090;23;21317;-83
2021/12/01 11:05:41;;;;;;;11.15;2.20;;;9.00;99.90;;;;;;6154011;23;20051;-83
2021/12/01 11:08:15;;;;;;;10.30;2.03;;;9.10;99.90;;;;;;6154580;23;20356;-82
2021/12/01 11:10:42;;;;;;;13.40;2.10;;;9.10;99.90;;;;;;6153969;23;20017;-82
2021/12/01 11:13:09;;;;;;;9.38;2.15;;;9.10;99.90;;;;;;6105181;23;20013;-82
2021/12/01 11:15:50;;;;;;;10.95;2.15;;;9.10;99.90;;;;;;6153990;23;20013;-82
2021/12/01 11:18:22;;;;;;;10.63;1.92;;;9.10;99.90;;;;;;6181361;23;20017;-82
2021/12/01 11:20:51;;;;;;;12.40;2.15;;;9.10;99.90;;;;;;6154357;23;20052;-83
2021/12/01 11:23:23;;;;;;;13.73;2.58;;;9.10;99.90;;;;;;6179430;23;20017;-82
2021/12/01 11:25:50;;;;;;;15.20;2.20;;;9.10;99.90;;;;;;6154463;23;20257;-82
2021/12/01 11:28:18;;;;;;;12.30;2.15;;;9.10;99.90;;;;;;6129985;23;20024;-82
2021/12/01 11:30:47;;;;;;;9.65;2.13;;;9.10;99.90;;;;;;6129508;23;20100;-82
2021/12/01 11:33:16;;;;;;;11.13;2.17;;;9.00;99.90;;;;;;6129720;23;20020;-82
2021/12/01 11:35:44;;;;;;;14.30;2.40;;;9.00;99.90;;;;;;6129655;23;20024;-83
2021/12/01 11:38:12;;;;;;;15.65;3.53;;;9.00;99.90;;;;;;6154993;23;20071;-82
2021/12/01 11:40:38;;;;;;;16.77;3.15;;;9.00;99.90;;;;;;6155809;23;20032;-83
2021/12/01 11:43:08;;;;;;;14.18;3.30;;;9.00;99.90;;;;;;6155590;23;20013;-82
2021/12/01 11:45:39;;;;;;;18.45;3.22;;;9.50;99.90;;;;;;6107551;23;20441;-82
2021/12/01 11:48:12;;;;;;;14.77;2.80;;;9.10;99.90;;;;;;6131586;23;20020;-81
2021/12/01 11:50:54;;;;;;;15.05;3.20;;;9.10;99.90;;;;;;6155567;23;20021;-82
2021/12/01 11:53:23;;;;;;;17.27;3.08;;;9.00;99.90;;;;;;6156515;23;20012;-82
2021/12/01 11:55:52;;;;;;;15.85;3.05;;;8.90;99.90;;;;;;6155867;23;20014;-82
2021/12/01 11:58:40;;;;;;;18.70;3.50;;;8.90;99.90;;;;;;6130663;23;20020;-82
2021/12/01 12:01:06;;;;;;;17.27;3.33;;;8.80;99.90;;;;;;6154904;23;20756;-82
2021/12/01 12:03:32;;;;;;;19.67;3.47;;;8.70;99.90;;;;;;6155001;23;20016;-81
2021/12/01 12:06:21;;;;;;;20.58;2.97;;;8.60;99.90;;;;;;6081976;23;20365;-84
2021/12/01 12:09:05;;;;;;;15.45;2.90;;;8.60;99.90;;;;;;6155999;23;20445;-82
2021/12/01 12:11:34;;;;;;;18.02;3.55;;;8.50;99.90;;;;;;6130559;23;20119;-83
2021/12/01 12:14:03;;;;;;;15.43;3.42;;;9.10;99.90;;;;;;6131285;23;20101;-82
2021/12/01 12:16:29;;;;;;;19.17;3.75;;;8.60;99.90;;;;;;6180925;23;20053;-83
2021/12/01 12:18:59;;;;;;;19.05;3.53;;;8.60;99.90;;;;;;6155574;23;20047;-82
2021/12/01 12:21:40;;;;;;;17.58;3.80;;;8.60;99.90;;;;;;6155085;23;20013;-82
2021/12/01 12:24:10;;;;;;;16.92;2.97;;;8.60;99.90;;;;;;6155187;23;20070;-83
2021/12/01 12:26:41;;;;;;;16.42;3.67;;;8.60;99.90;;;;;;6131347;23;20024;-82
2021/12/01 12:29:15;;;;;;;17.10;2.97;;;9.00;99.90;;;;;;6129905;23;20467;-82
2021/12/01 12:31:43;;;;;;;15.02;3.22;;;8.50;99.90;;;;;;6179523;23;20020;-82
2021/12/01 12:34:21;;;;;;;18.65;3.03;;;8.50;99.90;;;;;;6155037;23;20017;-82
2021/12/01 12:36:56;;;;;;;15.15;2.88;;;8.50;99.90;;;;;;6155669;23;20527;-82
2021/12/01 12:39:28;;;;;;;13.05;3.15;;;8.50;99.90;;;;;;6179695;23;20017;-82
2021/12/01 12:41:54;;;;;;;18.77;3.35;;;8.50;99.90;;;;;;6155098;23;20013;-83
2021/12/01 12:44:46;;;;;;;17.25;3.22;;;8.50;99.90;;;;;;6154566;23;20535;-82
2021/12/01 12:47:38;;;;;;;11.75;2.60;;;8.50;99.90;;;;;;6156010;23;20099;-82
2021/12/01 12:50:19;;;;;;;13.27;2.97;;;8.50;99.90;;;;;;6180345;23;20099;-82
2021/12/01 12:52:47;;;;;;;14.20;2.80;;;8.30;99.90;;;;;;6155397;23;20453;-82
2021/12/01 12:55:19;;;;;;;13.98;2.38;;;8.30;99.90;;;;;;6130102;23;20460;-82
2021/12/01 12:57:51;;;;;;;14.07;2.25;;;8.30;99.90;;;;;;6130590;23;20457;-82
2021/12/01 13:00:46;;;;;;;14.35;3.10;;;8.20;99.90;;;;;;6155037;23;20021;-82
2021/12/01 13:03:19;;;;;;;13.85;2.50;;;8.20;99.90;;;;;;6130250;23;20045;-83
2021/12/01 13:05:46;;;;;;;10.55;2.75;;;8.10;99.90;;;;;;6153099;23;20068;-82